JM-0015 weather

Moneague Training Camp Airfield
Moneague, Saint Ann, Jamaica

Public forecast

Using degrees Celsius for public forecast. Weather courtesy of forecast.io.

Closest aviation weather report (METAR) to Moneague Training Camp Airfield

Closest report is Norman Manley International Airport, 27.6 nm (51.1 km) SE. Retrieved 2020/05/26 06:00 UTC (33 minutes ago):

MKJP 260600Z 13019KT 9999 FEW024 28/23 Q1012

Closest aviation forecast (TAF) to Moneague Training Camp Airfield

Closest forecast is Norman Manley International Airport, 27.6 nm (51.1 km) SE. Retrieved 2020/05/26 06:12 UTC (21 minutes ago):

TAF MKJP 260515Z 2606/2706 13020KT 9999 FEW022 BECMG 2614/2616 16025KT BECMG 2701/2703 12018KT